Flight Number: EUR1175 Duration: 2:20
Departure: Madrid / Barajas (LEMD) at 08:30 Distance: 955 Nm
Arrival: Tenerife Norte (GCXO) at 10:50 Equipment: A321

Weather Information
Madrid / Barajas, Spain (LEMD) 40-27N 003-33W 582M May 20, 2018 - 10:00 AM EDT / 2018.05.20 1400 UTC
Wind: from the NNE (030 degrees) at 5 MPH (4 KT):0
Visibility: greater than 7 mile(s):0
Sky conditions: partly cloudy Temperature: 69 F (21 C) Dew Point: 50 F (10 C) Relative Humidity: 49% Pressure (altimeter): 29.91 in. Hg (1013 hPa)
ob: LEMD 201400Z 03004KT 9999 SCT050 21/10 Q1013 NOSIG cycle: 14
Sunrise: 04:56 Sunset: 19:25 (UTC)

Tenerife / Los Rodeos, Spain (GCXO) 28-28N 016-19W 617M May 20, 2018 - 10:00 AM EDT / 2018.05.20 1400 UTC
Wind: from the NW (320 degrees) at 20 MPH (17 KT) (direction variable):0
Visibility: greater than 7 mile(s):0
Sky conditions: partly cloudy Temperature: 62 F (17 C) Dew Point: 48 F (9 C) Relative Humidity: 59% Pressure (altimeter): 30.06 in. Hg (1018 hPa)
ob: GCXO 201400Z 32017KT 280V340 9999 SCT022 17/09 Q1018 NOSIG cycle: 14
Sunrise: 06:14 Sunset: 19:49 (UTC)

TAF:2018/05/20 09:27 TAF GCXO 200800Z 2009/2109 31016KT 9999 SCT020 TX18/2015Z TN12/2105Z PROB40 TEMPO 2021/2109 4900 BCFG BKN005

Previous Pireps for this route
Date Aircraft Flight time Fuel used Landing rate On time
2012-10-28A32102.5416304-310No
2013-06-05A32102.5116238-344No
2013-10-29B7372.20200000No
2014-06-11A32102.2814963-193Yes
2014-07-15A3212.4194480No
2014-07-19A32102.3615014-185Yes
2014-10-12A3212.20170000No
2015-01-06A3212.53221550No
(pireps marked green are flown by you)

Route map